Wilson Lista — 8PRW — position and weather

sailwx.info

Track history (hours):
 
Tides and Currents Weather Stations Pressure Air Temp Water Temp Dewpoint Dewpoint Depression Visibility Wind Speed Wind Dir Waves Ship Positions

Wilson Lista

Last reported at 2014-Sep-03 06:33 UTC. Time now 2014-Sep-03 07:15 UTC.
Position N 52°32' E 004°11'.

Length 88 m; draft 5.6 m.

Type: Cargo ship. MMSI: 314188000.

Date/timePositionNaut miles runAvg speedWind from/ knotsBaromVisibWave heightAir tempDewpointWater temp
2014-Sep-03 06:33N 52°32' E 004°11'9 9.4
2014-Sep-03 05:33N 52°29' E 004°27'6 6.0
2014-Sep-03 04:33N 52°28' E 004°36'6 5.5
2014-Sep-03 03:33N 52°26' E 004°44'2 2.2
2014-Sep-03 02:31N 52°24' E 004°47'0 0.0
2014-Sep-03 01:33N 52°24' E 004°47'0 0.0
2014-Sep-03 00:33N 52°24' E 004°47'0 0.0
2014-Sep-02 23:32N 52°24' E 004°47'0 0.0
2014-Sep-02 22:32N 52°24' E 004°47'0 0.0
2014-Sep-02 21:31N 52°24' E 004°47'0 0.0
2014-Sep-02 20:28N 52°24' E 004°47'0 0.0
2014-Sep-02 19:31N 52°24' E 004°47'0 0.0
2014-Sep-02 18:33N 52°24' E 004°47'0 0.0
2014-Sep-02 17:33N 52°24' E 004°47'0 0.0
2014-Sep-02 16:29N 52°24' E 004°47'0 0.0
2014-Sep-02 15:32N 52°24' E 004°47'0 0.1
2014-Sep-02 14:31N 52°24' E 004°47'0 0.0
2014-Sep-02 13:28N 52°24' E 004°47'0 0.0
2014-Sep-02 12:31N 52°24' E 004°47'0 0.0
2014-Sep-02 11:33N 52°24' E 004°47'0 0.0
2014-Sep-02 10:33N 52°24' E 004°47'0 0.0
2014-Sep-02 09:32N 52°24' E 004°47'0 0.0
2014-Sep-02 08:29N 52°24' E 004°47'0 0.0
2014-Sep-02 07:31N 52°24' E 004°47'0 0.0
2014-Sep-02 06:31N 52°24' E 004°47'0 0.0
2014-Sep-02 05:30N 52°24' E 004°47'0 0.0
2014-Sep-02 04:33N 52°24' E 004°47'0 0.0
2014-Sep-02 03:33N 52°24' E 004°47'0 0.0
2014-Sep-02 02:29N 52°24' E 004°47'0 0.0
2014-Sep-02 01:26N 52°24' E 004°47'0 0.0
2014-Sep-02 00:25N 52°24' E 004°47'0 0.0
2014-Sep-01 23:31N 52°24' E 004°47'0 0.0
2014-Sep-01 22:33N 52°24' E 004°47'0 0.0
2014-Sep-01 21:33N 52°24' E 004°47'0 0.0
2014-Sep-01 20:33N 52°24' E 004°47'0 0.0
2014-Sep-01 19:32N 52°24' E 004°47'0 0.0
2014-Sep-01 18:32N 52°24' E 004°47'1 0.6
2014-Sep-01 17:33N 52°25' E 004°46'1 1.4
2014-Sep-01 16:33N 52°25' E 004°49'0 0.0
2014-Sep-01 15:33N 52°25' E 004°49'0 0.0
2014-Sep-01 14:33N 52°25' E 004°49'0 0.0
2014-Sep-01 13:32N 52°25' E 004°49'0 0.1
2014-Sep-01 12:33N 52°25' E 004°49'0 0.1
2014-Sep-01 11:33N 52°25' E 004°49'0 0.0
2014-Sep-01 10:31N 52°25' E 004°49'0 0.0
2014-Sep-01 09:32N 52°25' E 004°49'0 0.0
2014-Sep-01 08:33N 52°25' E 004°49'0 0.0
2014-Sep-01 07:33N 52°25' E 004°49'0 0.0
2014-Sep-01 06:31N 52°25' E 004°49'0 0.0
2014-Sep-01 05:32N 52°25' E 004°49'0 0.0
2014-Sep-01 04:32N 52°25' E 004°49'0 0.0
2014-Sep-01 03:33N 52°25' E 004°49'0 0.0
2014-Sep-01 02:33N 52°25' E 004°49'0 0.0
2014-Sep-01 01:33N 52°25' E 004°49'0 0.0
2014-Sep-01 00:31N 52°25' E 004°49'0 0.0
2014-Aug-31 23:32N 52°25' E 004°49'0 0.0
2014-Aug-31 22:33N 52°25' E 004°49'0 0.0
2014-Aug-31 21:33N 52°25' E 004°49'0 0.0
2014-Aug-31 20:32N 52°25' E 004°49'0 0.0
2014-Aug-31 19:32N 52°25' E 004°49'0 0.0
2014-Aug-31 18:30N 52°25' E 004°49'0 0.0
2014-Aug-31 17:33N 52°25' E 004°49'0 0.0
2014-Aug-31 16:33N 52°25' E 004°49'0 0.0
2014-Aug-31 15:33N 52°25' E 004°49'0 0.0
2014-Aug-31 14:31N 52°25' E 004°49'0 0.0
2014-Aug-31 13:33N 52°25' E 004°49'0 0.1
2014-Aug-31 12:33N 52°25' E 004°49'0 0.1
2014-Aug-31 11:34N 52°25' E 004°49'0 0.0
2014-Aug-31 10:33N 52°25' E 004°49'0 0.0
2014-Aug-31 09:32N 52°25' E 004°49'0 0.0
2014-Aug-31 08:33N 52°25' E 004°49'0 0.0
2014-Aug-31 07:31N 52°25' E 004°49'0 0.0
2014-Aug-31 06:32N 52°25' E 004°49'0 0.0
2014-Aug-31 05:32N 52°25' E 004°49'0 0.0
2014-Aug-31 04:32N 52°25' E 004°49'0 0.0
2014-Aug-31 03:33N 52°25' E 004°49'0 0.0
2014-Aug-31 02:31N 52°25' E 004°49'0 0.0
2014-Aug-31 01:33N 52°25' E 004°49'0 0.0
2014-Aug-31 00:31N 52°25' E 004°49'0 0.0
2014-Aug-30 23:30N 52°25' E 004°49'0 0.0
2014-Aug-30 22:32N 52°25' E 004°49'0 0.0
2014-Aug-30 21:31N 52°25' E 004°49'0 0.0
2014-Aug-30 20:33N 52°25' E 004°49'0 0.1
2014-Aug-30 19:34N 52°25' E 004°49'8 7.9
2014-Aug-30 18:33N 52°28' E 004°37'4 3.6
2014-Aug-30 17:33N 52°28' E 004°31'1010.0
2014-Aug-30 16:33N 52°29' E 004°15'8 8.1
2014-Aug-30 15:32N 52°35' E 004°05'9 9.1
2014-Aug-30 14:33N 52°43' E 004°01'50 7.7
2014-Aug-30 08:05N 53°29' E 004°35'3 5.3
2014-Aug-30 07:33N 53°31' E 004°36'6 5.6
2014-Aug-30 06:33N 53°37' E 004°39'  
2014-Aug-26 23:34N 63°29' E 010°11'1010.1
2014-Aug-26 22:33N 63°35' E 010°30'29 1.6
2014-Aug-26 04:27N 63°59' E 011°06'0 0.0
2014-Aug-25 07:33N 63°59' E 011°06'0 0.0
2014-Aug-24 17:21N 63°59' E 011°06'  
Track history (hours):
 
Tides and Currents Weather Stations Pressure Air Temp Water Temp Dewpoint Dewpoint Depression Visibility Wind Speed Wind Dir Waves Ship Positions

Wilson Lista

Last reported at 2014-Sep-03 06:33 UTC. Time now 2014-Sep-03 07:15 UTC.
Position N 52°32' E 004°11'.

Length 88 m; draft 5.6 m.

Type: Cargo ship. MMSI: 314188000.

Date/timePositionNaut miles runAvg speedWind from/ knotsBaromVisibWave heightAir tempDewpointWater temp
2014-Sep-03 06:33N 52°32' E 004°11'9 9.4
2014-Sep-03 05:33N 52°29' E 004°27'6 6.0
2014-Sep-03 04:33N 52°28' E 004°36'6 5.5
2014-Sep-03 03:33N 52°26' E 004°44'2 2.2
2014-Sep-03 02:31N 52°24' E 004°47'0 0.0
2014-Sep-03 01:33N 52°24' E 004°47'0 0.0
2014-Sep-03 00:33N 52°24' E 004°47'0 0.0
2014-Sep-02 23:32N 52°24' E 004°47'0 0.0
2014-Sep-02 22:32N 52°24' E 004°47'0 0.0
2014-Sep-02 21:31N 52°24' E 004°47'0 0.0
2014-Sep-02 20:28N 52°24' E 004°47'0 0.0
2014-Sep-02 19:31N 52°24' E 004°47'0 0.0
2014-Sep-02 18:33N 52°24' E 004°47'0 0.0
2014-Sep-02 17:33N 52°24' E 004°47'0 0.0
2014-Sep-02 16:29N 52°24' E 004°47'0 0.0
2014-Sep-02 15:32N 52°24' E 004°47'0 0.1
2014-Sep-02 14:31N 52°24' E 004°47'0 0.0
2014-Sep-02 13:28N 52°24' E 004°47'0 0.0
2014-Sep-02 12:31N 52°24' E 004°47'0 0.0
2014-Sep-02 11:33N 52°24' E 004°47'0 0.0
2014-Sep-02 10:33N 52°24' E 004°47'0 0.0
2014-Sep-02 09:32N 52°24' E 004°47'0 0.0
2014-Sep-02 08:29N 52°24' E 004°47'0 0.0
2014-Sep-02 07:31N 52°24' E 004°47'0 0.0
2014-Sep-02 06:31N 52°24' E 004°47'0 0.0
2014-Sep-02 05:30N 52°24' E 004°47'0 0.0
2014-Sep-02 04:33N 52°24' E 004°47'0 0.0
2014-Sep-02 03:33N 52°24' E 004°47'0 0.0
2014-Sep-02 02:29N 52°24' E 004°47'0 0.0
2014-Sep-02 01:26N 52°24' E 004°47'0 0.0
2014-Sep-02 00:25N 52°24' E 004°47'0 0.0
2014-Sep-01 23:31N 52°24' E 004°47'0 0.0
2014-Sep-01 22:33N 52°24' E 004°47'0 0.0
2014-Sep-01 21:33N 52°24' E 004°47'0 0.0
2014-Sep-01 20:33N 52°24' E 004°47'0 0.0
2014-Sep-01 19:32N 52°24' E 004°47'0 0.0
2014-Sep-01 18:32N 52°24' E 004°47'1 0.6
2014-Sep-01 17:33N 52°25' E 004°46'1 1.4
2014-Sep-01 16:33N 52°25' E 004°49'0 0.0
2014-Sep-01 15:33N 52°25' E 004°49'0 0.0
2014-Sep-01 14:33N 52°25' E 004°49'0 0.0
2014-Sep-01 13:32N 52°25' E 004°49'0 0.1
2014-Sep-01 12:33N 52°25' E 004°49'0 0.1
2014-Sep-01 11:33N 52°25' E 004°49'0 0.0
2014-Sep-01 10:31N 52°25' E 004°49'0 0.0
2014-Sep-01 09:32N 52°25' E 004°49'0 0.0
2014-Sep-01 08:33N 52°25' E 004°49'0 0.0
2014-Sep-01 07:33N 52°25' E 004°49'0 0.0
2014-Sep-01 06:31N 52°25' E 004°49'0 0.0
2014-Sep-01 05:32N 52°25' E 004°49'0 0.0
2014-Sep-01 04:32N 52°25' E 004°49'0 0.0
2014-Sep-01 03:33N 52°25' E 004°49'0 0.0
2014-Sep-01 02:33N 52°25' E 004°49'0 0.0
2014-Sep-01 01:33N 52°25' E 004°49'0 0.0
2014-Sep-01 00:31N 52°25' E 004°49'0 0.0
2014-Aug-31 23:32N 52°25' E 004°49'0 0.0
2014-Aug-31 22:33N 52°25' E 004°49'0 0.0
2014-Aug-31 21:33N 52°25' E 004°49'0 0.0
2014-Aug-31 20:32N 52°25' E 004°49'0 0.0
2014-Aug-31 19:32N 52°25' E 004°49'0 0.0
2014-Aug-31 18:30N 52°25' E 004°49'0 0.0
2014-Aug-31 17:33N 52°25' E 004°49'0 0.0
2014-Aug-31 16:33N 52°25' E 004°49'0 0.0
2014-Aug-31 15:33N 52°25' E 004°49'0 0.0
2014-Aug-31 14:31N 52°25' E 004°49'0 0.0
2014-Aug-31 13:33N 52°25' E 004°49'0 0.1
2014-Aug-31 12:33N 52°25' E 004°49'0 0.1
2014-Aug-31 11:34N 52°25' E 004°49'0 0.0
2014-Aug-31 10:33N 52°25' E 004°49'0 0.0
2014-Aug-31 09:32N 52°25' E 004°49'0 0.0
2014-Aug-31 08:33N 52°25' E 004°49'0 0.0
2014-Aug-31 07:31N 52°25' E 004°49'0 0.0
2014-Aug-31 06:32N 52°25' E 004°49'0 0.0
2014-Aug-31 05:32N 52°25' E 004°49'0 0.0
2014-Aug-31 04:32N 52°25' E 004°49'0 0.0
2014-Aug-31 03:33N 52°25' E 004°49'0 0.0
2014-Aug-31 02:31N 52°25' E 004°49'0 0.0
2014-Aug-31 01:33N 52°25' E 004°49'0 0.0
2014-Aug-31 00:31N 52°25' E 004°49'0 0.0
2014-Aug-30 23:30N 52°25' E 004°49'0 0.0
2014-Aug-30 22:32N 52°25' E 004°49'0 0.0
2014-Aug-30 21:31N 52°25' E 004°49'0 0.0
2014-Aug-30 20:33N 52°25' E 004°49'0 0.1
2014-Aug-30 19:34N 52°25' E 004°49'8 7.9
2014-Aug-30 18:33N 52°28' E 004°37'4 3.6
2014-Aug-30 17:33N 52°28' E 004°31'1010.0
2014-Aug-30 16:33N 52°29' E 004°15'8 8.1
2014-Aug-30 15:32N 52°35' E 004°05'9 9.1
2014-Aug-30 14:33N 52°43' E 004°01'50 7.7
2014-Aug-30 08:05N 53°29' E 004°35'3 5.3
2014-Aug-30 07:33N 53°31' E 004°36'6 5.6
2014-Aug-30 06:33N 53°37' E 004°39'  
2014-Aug-26 23:34N 63°29' E 010°11'1010.1
2014-Aug-26 22:33N 63°35' E 010°30'29 1.6
2014-Aug-26 04:27N 63°59' E 011°06'0 0.0
2014-Aug-25 07:33N 63°59' E 011°06'0 0.0
2014-Aug-24 17:21N 63°59' E 011°06'  

Dump ship's entire track history